sensor_id;sensor_type;location;lat;lon;timestamp;pressure;altitude;pressure_sealevel;temperature;humidity
85786;BME280;76225;52.474;13.332;2024-03-07T14:30:51;101988.44;;;20.21;31.57
85786;BME280;76225;52.474;13.332;2024-03-07T14:33:19;101987.56;;;19.67;30.96
85786;BME280;76225;52.474;13.332;2024-03-07T14:36:11;101992.28;;;16.68;23.80
85786;BME280;76225;52.474;13.332;2024-03-07T14:38:52;102010.94;;;11.14;30.59
85786;BME280;76225;52.474;13.332;2024-03-07T14:41:50;102007.84;;;10.92;32.20
85786;BME280;76225;52.474;13.332;2024-03-07T14:44:18;101985.22;;;10.28;33.21
85786;BME280;76225;52.474;13.332;2024-03-07T14:46:44;102016.06;;;9.88;33.39
85786;BME280;76225;52.474;13.332;2024-03-07T14:49:17;101988.56;;;9.47;34.52
85786;BME280;76225;52.474;13.332;2024-03-07T14:51:42;101985.31;;;9.24;34.71
85786;BME280;76225;52.474;13.332;2024-03-07T14:54:09;102017.47;;;9.39;35.04
85786;BME280;76225;52.474;13.332;2024-03-07T14:56:37;102017.66;;;9.13;35.79
85786;BME280;76225;52.474;13.332;2024-03-07T14:59:02;102015.38;;;8.95;34.66
85786;BME280;76225;52.474;13.332;2024-03-07T15:01:31;102015.63;;;9.05;35.68
85786;BME280;76225;52.474;13.332;2024-03-07T15:03:58;101997.13;;;9.37;34.62
85786;BME280;76225;52.474;13.332;2024-03-07T15:06:24;102008.69;;;9.40;34.87
85786;BME280;76225;52.474;13.332;2024-03-07T15:08:50;102010.94;;;9.60;34.96
85786;BME280;76225;52.474;13.332;2024-03-07T15:11:22;102007.03;;;9.79;34.43
85786;BME280;76225;52.474;13.332;2024-03-07T15:13:49;102000.63;;;9.71;34.70
85786;BME280;76225;52.474;13.332;2024-03-07T15:16:15;101967.22;;;8.75;36.30
85786;BME280;76225;52.474;13.332;2024-03-07T15:18:42;101980.94;;;8.94;36.60
85786;BME280;76225;52.474;13.332;2024-03-07T15:21:09;102014.75;;;9.36;35.66
85786;BME280;76225;52.474;13.332;2024-03-07T15:23:41;101974.56;;;9.18;35.82
85786;BME280;76225;52.474;13.332;2024-03-07T15:26:07;102004.34;;;9.44;35.64
85786;BME280;76225;52.474;13.332;2024-03-07T15:28:33;102002.56;;;9.43;35.44
85786;BME280;76225;52.474;13.332;2024-03-07T15:31:01;102004.78;;;9.26;35.02
85786;BME280;76225;52.474;13.332;2024-03-07T15:33:34;101999.59;;;8.98;35.85
85786;BME280;76225;52.474;13.332;2024-03-07T15:36:06;101982.66;;;8.92;36.62
85786;BME280;76225;52.474;13.332;2024-03-07T15:38:34;101992.22;;;8.86;36.53
85786;BME280;76225;52.474;13.332;2024-03-07T15:41:05;102001.19;;;8.92;37.38
85786;BME280;76225;52.474;13.332;2024-03-07T15:43:36;101999.03;;;8.78;37.21
85786;BME280;76225;52.474;13.332;2024-03-07T15:46:01;102000.72;;;8.76;38.06
85786;BME280;76225;52.474;13.332;2024-03-07T15:48:30;101998.84;;;8.72;37.69
85786;BME280;76225;52.474;13.332;2024-03-07T15:50:57;101992.44;;;8.64;38.37
85786;BME280;76225;52.474;13.332;2024-03-07T15:53:23;101998.50;;;8.59;38.38
85786;BME280;76225;52.474;13.332;2024-03-07T15:55:49;101988.44;;;8.49;37.61
85786;BME280;76225;52.474;13.332;2024-03-07T15:58:15;101989.75;;;8.34;37.77
85786;BME280;76225;52.474;13.332;2024-03-07T16:00:45;102001.25;;;8.35;37.36
85786;BME280;76225;52.474;13.332;2024-03-07T16:03:25;102006.31;;;8.29;37.72
85786;BME280;76225;52.474;13.332;2024-03-07T16:06:06;102000.16;;;8.28;38.01
85786;BME280;76225;52.474;13.332;2024-03-07T16:08:32;101989.31;;;8.19;37.29
85786;BME280;76225;52.474;13.332;2024-03-07T16:10:59;101991.88;;;8.17;37.72
85786;BME280;76225;52.474;13.332;2024-03-07T16:13:25;101998.72;;;8.10;37.14
85786;BME280;76225;52.474;13.332;2024-03-07T16:15:50;101988.78;;;8.03;38.59
85786;BME280;76225;52.474;13.332;2024-03-07T16:18:16;101992.06;;;7.96;38.21
85786;BME280;76225;52.474;13.332;2024-03-07T16:20:42;101990.09;;;7.89;38.78
85786;BME280;76225;52.474;13.332;2024-03-07T16:23:11;101993.59;;;7.88;39.00
85786;BME280;76225;52.474;13.332;2024-03-07T16:25:37;101995.47;;;7.92;39.69
85786;BME280;76225;52.474;13.332;2024-03-07T16:28:03;101988.09;;;7.81;39.40
85786;BME280;76225;52.474;13.332;2024-03-07T16:30:36;101997.50;;;7.73;39.77
85786;BME280;76225;52.474;13.332;2024-03-07T16:33:09;101986.50;;;7.61;40.40
85786;BME280;76225;52.474;13.332;2024-03-07T16:35:35;101996.13;;;7.58;40.50
85786;BME280;76225;52.474;13.332;2024-03-07T16:38:03;101988.38;;;7.63;40.96
85786;BME280;76225;52.474;13.332;2024-03-07T16:40:30;101986.94;;;7.47;40.22
85786;BME280;76225;52.474;13.332;2024-03-07T16:42:59;102000.38;;;7.53;40.40
85786;BME280;76225;52.474;13.332;2024-03-07T16:45:28;101995.66;;;7.44;40.95
85786;BME280;76225;52.474;13.332;2024-03-07T16:47:55;101995.50;;;7.40;41.06
85786;BME280;76225;52.474;13.332;2024-03-07T16:50:30;101993.47;;;7.32;41.61
85786;BME280;76225;52.474;13.332;2024-03-07T16:53:00;101991.75;;;7.33;41.58
85786;BME280;76225;52.474;13.332;2024-03-07T16:55:34;101995.84;;;7.25;42.23
85786;BME280;76225;52.474;13.332;2024-03-07T16:58:03;101998.84;;;7.10;42.29
85786;BME280;76225;52.474;13.332;2024-03-07T17:00:29;101992.56;;;7.06;42.67
85786;BME280;76225;52.474;13.332;2024-03-07T17:03:03;101998.00;;;7.11;42.95
85786;BME280;76225;52.474;13.332;2024-03-07T17:05:33;102008.06;;;6.98;42.88
85786;BME280;76225;52.474;13.332;2024-03-07T17:08:02;102006.28;;;6.97;42.66
85786;BME280;76225;52.474;13.332;2024-03-07T17:10:36;102008.06;;;6.98;43.16
85786;BME280;76225;52.474;13.332;2024-03-07T17:13:05;102007.88;;;6.92;43.46
85786;BME280;76225;52.474;13.332;2024-03-07T17:15:38;102004.94;;;6.84;43.00
85786;BME280;76225;52.474;13.332;2024-03-07T17:18:04;102003.81;;;6.77;43.29
85786;BME280;76225;52.474;13.332;2024-03-07T17:20:30;102007.13;;;6.72;43.53
85786;BME280;76225;52.474;13.332;2024-03-07T17:22:57;102007.00;;;6.69;44.04
85786;BME280;76225;52.474;13.332;2024-03-07T17:25:28;101995.19;;;6.59;44.55
85786;BME280;76225;52.474;13.332;2024-03-07T17:27:55;101984.81;;;6.39;44.65
85786;BME280;76225;52.474;13.332;2024-03-07T17:30:24;102015.31;;;6.57;44.34
85786;BME280;76225;52.474;13.332;2024-03-07T17:32:56;101993.66;;;6.41;44.88
85786;BME280;76225;52.474;13.332;2024-03-07T17:35:25;102012.28;;;6.46;44.94
85786;BME280;76225;52.474;13.332;2024-03-07T17:37:54;102007.06;;;6.47;44.97
85786;BME280;76225;52.474;13.332;2024-03-07T17:40:21;102001.81;;;6.47;45.04
85786;BME280;76225;52.474;13.332;2024-03-07T17:42:54;102016.53;;;6.42;45.47
85786;BME280;76225;52.474;13.332;2024-03-07T17:45:21;102018.19;;;6.40;45.53
85786;BME280;76225;52.474;13.332;2024-03-07T17:47:51;101995.69;;;6.25;45.66
85786;BME280;76225;52.474;13.332;2024-03-07T17:50:26;101991.97;;;6.20;45.78
85786;BME280;76225;52.474;13.332;2024-03-07T17:52:56;101964.69;;;5.97;45.56
85786;BME280;76225;52.474;13.332;2024-03-07T17:55:28;101999.09;;;6.01;46.27
85786;BME280;76225;52.474;13.332;2024-03-07T17:57:55;102025.06;;;6.13;45.89
85786;BME280;76225;52.474;13.332;2024-03-07T18:00:23;101990.53;;;6.06;46.03
85786;BME280;76225;52.474;13.332;2024-03-07T18:02:56;102006.34;;;6.06;46.74
85786;BME280;76225;52.474;13.332;2024-03-07T18:05:28;102004.38;;;6.01;46.16
85786;BME280;76225;52.474;13.332;2024-03-07T18:08:02;101991.56;;;5.88;47.26
85786;BME280;76225;52.474;13.332;2024-03-07T18:10:39;102013.16;;;6.02;46.24
85786;BME280;76225;52.474;13.332;2024-03-07T18:13:14;102005.28;;;5.81;47.46
85786;BME280;76225;52.474;13.332;2024-03-07T18:15:58;102022.38;;;5.92;46.83
85786;BME280;76225;52.474;13.332;2024-03-07T18:18:26;101972.94;;;5.62;46.22
85786;BME280;76225;52.474;13.332;2024-03-07T18:20:53;102022.16;;;5.86;47.04
85786;BME280;76225;52.474;13.332;2024-03-07T18:23:39;102018.28;;;5.78;46.99
85786;BME280;76225;52.474;13.332;2024-03-07T18:26:04;102010.00;;;5.68;47.20
85786;BME280;76225;52.474;13.332;2024-03-07T18:28:34;102022.72;;;5.79;47.05
85786;BME280;76225;52.474;13.332;2024-03-07T18:31:04;102031.31;;;5.74;47.68
85786;BME280;76225;52.474;13.332;2024-03-07T18:33:42;102028.25;;;5.64;47.60
85786;BME280;76225;52.474;13.332;2024-03-07T18:36:12;102027.19;;;5.60;47.42
85786;BME280;76225;52.474;13.332;2024-03-07T18:38:41;102024.88;;;5.68;47.31
85786;BME280;76225;52.474;13.332;2024-03-07T18:41:11;102039.94;;;5.70;47.67
85786;BME280;76225;52.474;13.332;2024-03-07T18:43:37;101998.56;;;5.46;47.39
85786;BME280;76225;52.474;13.332;2024-03-07T18:46:04;102017.38;;;5.56;47.74
85786;BME280;76225;52.474;13.332;2024-03-07T18:48:31;102021.81;;;5.57;47.82
85786;BME280;76225;52.474;13.332;2024-03-07T18:50:57;101997.78;;;5.28;48.63
85786;BME280;76225;52.474;13.332;2024-03-07T18:53:24;102026.41;;;5.41;48.97
85786;BME280;76225;52.474;13.332;2024-03-07T18:55:54;102013.63;;;5.29;49.16
85786;BME280;76225;52.474;13.332;2024-03-07T18:58:22;102008.44;;;5.31;48.61
85786;BME280;76225;52.474;13.332;2024-03-07T19:00:50;102028.88;;;5.38;49.55
85786;BME280;76225;52.474;13.332;2024-03-07T19:03:18;101992.97;;;5.17;48.81
85786;BME280;76225;52.474;13.332;2024-03-07T19:05:45;102035.69;;;5.33;49.28
85786;BME280;76225;52.474;13.332;2024-03-07T19:08:12;102029.13;;;5.23;49.27
85786;BME280;76225;52.474;13.332;2024-03-07T19:10:51;101994.63;;;4.95;49.82
85786;BME280;76225;52.474;13.332;2024-03-07T19:13:20;101966.06;;;4.83;50.08
85786;BME280;76225;52.474;13.332;2024-03-07T19:15:47;102040.06;;;5.32;49.95
85786;BME280;76225;52.474;13.332;2024-03-07T19:18:26;102021.41;;;5.06;50.43
85786;BME280;76225;52.474;13.332;2024-03-07T19:21:12;102025.19;;;5.13;50.58
85786;BME280;76225;52.474;13.332;2024-03-07T19:26:13;102002.78;;;4.82;50.54
85786;BME280;76225;52.474;13.332;2024-03-07T19:28:41;102048.28;;;5.01;51.20
85786;BME280;76225;52.474;13.332;2024-03-07T19:31:18;101965.91;;;4.61;50.70
85786;BME280;76225;52.474;13.332;2024-03-07T19:33:43;102011.63;;;4.84;50.77
85786;BME280;76225;52.474;13.332;2024-03-07T19:36:12;102033.22;;;4.96;51.10
85786;BME280;76225;52.474;13.332;2024-03-07T19:38:41;102032.22;;;4.94;51.43
85786;BME280;76225;52.474;13.332;2024-03-07T19:41:07;102011.69;;;4.66;52.01
85786;BME280;76225;52.474;13.332;2024-03-07T19:43:35;102036.25;;;4.86;51.92
85786;BME280;76225;52.474;13.332;2024-03-07T19:46:02;101985.47;;;4.67;51.66
85786;BME280;76225;52.474;13.332;2024-03-07T19:48:30;102030.44;;;4.93;51.25
85786;BME280;76225;52.474;13.332;2024-03-07T19:50:57;102024.56;;;4.79;51.75
85786;BME280;76225;52.474;13.332;2024-03-07T19:53:26;102027.22;;;4.81;51.73
85786;BME280;76225;52.474;13.332;2024-03-07T19:55:55;101999.09;;;4.59;51.56
85786;BME280;76225;52.474;13.332;2024-03-07T19:58:21;102043.22;;;4.86;51.79
85786;BME280;76225;52.474;13.332;2024-03-07T20:00:46;102019.75;;;4.70;52.13
85786;BME280;76225;52.474;13.332;2024-03-07T20:03:13;102033.72;;;4.69;52.40
85786;BME280;76225;52.474;13.332;2024-03-07T20:05:41;101980.06;;;4.44;52.46
85786;BME280;76225;52.474;13.332;2024-03-07T20:08:07;102036.00;;;4.62;52.37
85786;BME280;76225;52.474;13.332;2024-03-07T20:10:33;102022.50;;;4.54;52.58
85786;BME280;76225;52.474;13.332;2024-03-07T20:13:01;102010.81;;;4.47;52.44
85786;BME280;76225;52.474;13.332;2024-03-07T20:15:33;102031.38;;;4.56;52.44
85786;BME280;76225;52.474;13.332;2024-03-07T20:18:01;102036.47;;;4.53;52.50
85786;BME280;76225;52.474;13.332;2024-03-07T20:20:27;102035.44;;;4.49;52.59
85786;BME280;76225;52.474;13.332;2024-03-07T20:22:57;102037.81;;;4.44;53.32
85786;BME280;76225;52.474;13.332;2024-03-07T20:25:26;102029.25;;;4.49;54.19
85786;BME280;76225;52.474;13.332;2024-03-07T20:27:55;102027.06;;;4.58;53.69
85786;BME280;76225;52.474;13.332;2024-03-07T20:30:24;102034.81;;;4.55;53.06
85786;BME280;76225;52.474;13.332;2024-03-07T20:32:57;102027.75;;;4.54;52.74
85786;BME280;76225;52.474;13.332;2024-03-07T20:35:24;102016.97;;;4.48;52.56
85786;BME280;76225;52.474;13.332;2024-03-07T20:37:50;102027.47;;;4.48;53.44
85786;BME280;76225;52.474;13.332;2024-03-07T20:40:16;102033.13;;;4.37;53.35
85786;BME280;76225;52.474;13.332;2024-03-07T20:42:43;102021.72;;;4.37;53.72
85786;BME280;76225;52.474;13.332;2024-03-07T20:45:12;102030.41;;;4.36;54.00
85786;BME280;76225;52.474;13.332;2024-03-07T20:47:43;101995.34;;;4.15;53.22
85786;BME280;76225;52.474;13.332;2024-03-07T20:50:10;102031.09;;;4.31;53.83
85786;BME280;76225;52.474;13.332;2024-03-07T20:52:46;102016.84;;;4.08;54.48
85786;BME280;76225;52.474;13.332;2024-03-07T20:55:19;102021.25;;;4.09;54.25
85786;BME280;76225;52.474;13.332;2024-03-07T20:57:46;102031.53;;;4.23;54.17
85786;BME280;76225;52.474;13.332;2024-03-07T21:00:24;102027.94;;;4.21;54.16
85786;BME280;76225;52.474;13.332;2024-03-07T21:02:59;102031.41;;;4.20;54.59
85786;BME280;76225;52.474;13.332;2024-03-07T21:05:25;102027.50;;;4.11;54.60
85786;BME280;76225;52.474;13.332;2024-03-07T21:07:52;101988.50;;;3.83;54.76
85786;BME280;76225;52.474;13.332;2024-03-07T21:10:22;102030.91;;;4.10;54.50
85786;BME280;76225;52.474;13.332;2024-03-07T21:12:54;102017.22;;;3.98;54.06
85786;BME280;76225;52.474;13.332;2024-03-07T21:15:23;102032.59;;;4.08;54.05
85786;BME280;76225;52.474;13.332;2024-03-07T21:17:53;102019.09;;;4.00;54.26
85786;BME280;76225;52.474;13.332;2024-03-07T21:20:18;102033.94;;;4.00;55.14
85786;BME280;76225;52.474;13.332;2024-03-07T21:22:45;102019.53;;;3.91;55.22
85786;BME280;76225;52.474;13.332;2024-03-07T21:25:13;102025.97;;;3.98;54.53
85786;BME280;76225;52.474;13.332;2024-03-07T21:27:47;102034.44;;;3.92;54.74
85786;BME280;76225;52.474;13.332;2024-03-07T21:30:23;102031.69;;;3.89;54.99
85786;BME280;76225;52.474;13.332;2024-03-07T21:32:51;102019.97;;;3.83;55.13
85786;BME280;76225;52.474;13.332;2024-03-07T21:35:24;102024.03;;;3.76;55.66
85786;BME280;76225;52.474;13.332;2024-03-07T21:37:58;102014.88;;;3.68;56.51
85786;BME280;76225;52.474;13.332;2024-03-07T21:40:27;102013.47;;;3.58;57.09
85786;BME280;76225;52.474;13.332;2024-03-07T21:42:55;102020.84;;;3.65;56.56
85786;BME280;76225;52.474;13.332;2024-03-07T21:45:21;102016.34;;;3.62;56.62
85786;BME280;76225;52.474;13.332;2024-03-07T21:47:48;102024.56;;;3.52;57.01
85786;BME280;76225;52.474;13.332;2024-03-07T21:50:14;102011.97;;;3.45;56.51
85786;BME280;76225;52.474;13.332;2024-03-07T21:52:47;101962.50;;;3.34;56.86
85786;BME280;76225;52.474;13.332;2024-03-07T21:55:14;101998.00;;;3.62;55.89
85786;BME280;76225;52.474;13.332;2024-03-07T21:58:03;102022.19;;;3.75;55.93
85786;BME280;76225;52.474;13.332;2024-03-07T22:00:36;102011.72;;;3.75;55.95
85786;BME280;76225;52.474;13.332;2024-03-07T22:03:05;102014.50;;;3.78;55.66
85786;BME280;76225;52.474;13.332;2024-03-07T22:05:32;102022.19;;;3.75;55.96
85786;BME280;76225;52.474;13.332;2024-03-07T22:07:57;102004.38;;;3.68;55.72
85786;BME280;76225;52.474;13.332;2024-03-07T22:10:23;102007.75;;;3.65;56.34
85786;BME280;76225;52.474;13.332;2024-03-07T22:12:49;102011.41;;;3.69;56.31
85786;BME280;76225;52.474;13.332;2024-03-07T22:15:18;101995.63;;;3.50;56.93
85786;BME280;76225;52.474;13.332;2024-03-07T22:17:49;101994.59;;;3.47;56.42
85786;BME280;76225;52.474;13.332;2024-03-07T22:20:17;102013.59;;;3.43;57.28
85786;BME280;76225;52.474;13.332;2024-03-07T22:22:44;102006.47;;;3.40;57.34
85786;BME280;76225;52.474;13.332;2024-03-07T22:25:16;102007.88;;;3.33;57.99
85786;BME280;76225;52.474;13.332;2024-03-07T22:27:44;102003.31;;;3.29;58.36
85786;BME280;76225;52.474;13.332;2024-03-07T22:30:11;101994.66;;;3.13;57.88
85786;BME280;76225;52.474;13.332;2024-03-07T22:32:46;102012.91;;;3.12;58.36
85786;BME280;76225;52.474;13.332;2024-03-07T22:35:12;101991.88;;;2.94;59.61
85786;BME280;76225;52.474;13.332;2024-03-07T22:37:41;101988.50;;;2.96;58.99
85786;BME280;76225;52.474;13.332;2024-03-07T22:40:15;101997.28;;;2.97;59.15
85786;BME280;76225;52.474;13.332;2024-03-07T22:42:41;102006.28;;;3.02;58.75
85786;BME280;76225;52.474;13.332;2024-03-07T22:45:08;102008.81;;;3.00;59.63
85786;BME280;76225;52.474;13.332;2024-03-07T22:47:39;101996.88;;;2.89;59.59
85786;BME280;76225;52.474;13.332;2024-03-07T22:50:05;102005.78;;;2.93;60.50
85786;BME280;76225;52.474;13.332;2024-03-07T22:52:39;102004.72;;;2.89;60.29
85786;BME280;76225;52.474;13.332;2024-03-07T22:55:05;101991.53;;;2.71;60.67
85786;BME280;76225;52.474;13.332;2024-03-07T22:57:35;102006.78;;;2.78;60.60
85786;BME280;76225;52.474;13.332;2024-03-07T23:00:12;102002.66;;;2.67;60.82
85786;BME280;76225;52.474;13.332;2024-03-07T23:02:49;101989.00;;;2.72;60.42
85786;BME280;76225;52.474;13.332;2024-03-07T23:05:14;101985.25;;;2.67;60.44
85786;BME280;76225;52.474;13.332;2024-03-07T23:07:41;101965.44;;;2.56;61.30
85786;BME280;76225;52.474;13.332;2024-03-07T23:10:10;101984.34;;;2.67;61.65
85786;BME280;76225;52.474;13.332;2024-03-07T23:12:58;101978.69;;;2.59;61.65
85786;BME280;76225;52.474;13.332;2024-03-07T23:15:26;101986.44;;;2.57;60.91
85786;BME280;76225;52.474;13.332;2024-03-07T23:17:53;101982.50;;;2.49;61.84
85786;BME280;76225;52.474;13.332;2024-03-07T23:20:20;101979.91;;;2.49;61.67
85786;BME280;76225;52.474;13.332;2024-03-07T23:22:46;101972.69;;;2.45;62.23
85786;BME280;76225;52.474;13.332;2024-03-07T23:25:12;101970.91;;;2.44;62.03
85786;BME280;76225;52.474;13.332;2024-03-07T23:27:42;101968.28;;;2.44;61.67
85786;BME280;76225;52.474;13.332;2024-03-07T23:32:48;101967.38;;;2.43;61.88
85786;BME280;76225;52.474;13.332;2024-03-07T23:37:50;101969.66;;;2.37;61.94
85786;BME280;76225;52.474;13.332;2024-03-07T23:40:16;101974.06;;;2.38;61.86
85786;BME280;76225;52.474;13.332;2024-03-07T23:42:44;101924.72;;;2.13;62.80
85786;BME280;76225;52.474;13.332;2024-03-07T23:45:15;101958.50;;;2.25;62.58
85786;BME280;76225;52.474;13.332;2024-03-07T23:47:42;101946.63;;;2.15;62.79
85786;BME280;76225;52.474;13.332;2024-03-07T23:50:11;101939.59;;;2.14;62.98
85786;BME280;76225;52.474;13.332;2024-03-07T23:52:44;101942.41;;;2.17;62.75
85786;BME280;76225;52.474;13.332;2024-03-07T23:55:23;101960.38;;;2.27;63.72
85786;BME280;76225;52.474;13.332;2024-03-07T23:57:49;101943.88;;;2.12;62.44
